Time;durP1;ratioP1;P1;durP2;ratioP2;P2;SDS_P1;SDS_P2;PMS_P1;PMS_P2;Temp;Humidity;BMP_temperature;BMP_pressure;BME280_temperature;BME280_humidity;BME280_pressure;Samples;Min_cycle;Max_cycle;Signal;HPM_P1;HPM_P2
2021/05/27 00:00:08;;;;;;;21.75;8.18;;;;;;;;;;4434353;32;20137;-66
2021/05/27 00:02:33;;;;;;;23.77;7.95;;;;;;;;;;4431238;32;20158;-66
2021/05/27 00:04:58;;;;;;;23.92;9.35;;;;;;;;;;4419270;32;20193;-66
2021/05/27 00:07:23;;;;;;;29.85;9.60;;;;;;;;;;4418364;32;20465;-68
2021/05/27 00:09:49;;;;;;;28.38;8.55;;;;;;;;;;4405193;32;20632;-67
2021/05/27 00:12:14;;;;;;;22.00;9.05;;;;;;;;;;4419368;32;20135;-66
2021/05/27 00:14:39;;;;;;;23.60;8.38;;;;;;;;;;4418905;32;20237;-66
2021/05/27 00:17:04;;;;;;;23.12;8.93;;;;;;;;;;4418455;32;20146;-67
2021/05/27 00:19:29;;;;;;;28.27;8.18;;;;;;;;;;4419352;32;20173;-67
2021/05/27 00:21:55;;;;;;;20.12;7.65;;;;;;;;;;4418236;32;20326;-67
2021/05/27 00:24:20;;;;;;;20.02;8.15;;;;;;;;;;4418653;32;20255;-66
2021/05/27 00:26:45;;;;;;;19.87;7.68;;;;;;;;;;4419226;32;20500;-67
2021/05/27 00:29:10;;;;;;;19.87;8.20;;;;;;;;;;4418686;32;20192;-66
2021/05/27 00:31:35;;;;;;;25.08;8.60;;;;;;;;;;4418435;32;20227;-67
2021/05/27 00:34:01;;;;;;;25.98;7.78;;;;;;;;;;4419084;32;20141;-67
2021/05/27 00:36:26;;;;;;;18.15;7.25;;;;;;;;;;4419478;32;20134;-67
2021/05/27 00:38:51;;;;;;;19.60;8.25;;;;;;;;;;4419107;32;20146;-66
2021/05/27 00:41:17;;;;;;;18.27;7.47;;;;;;;;;;4418320;32;20209;-66
2021/05/27 00:43:42;;;;;;;24.58;8.70;;;;;;;;;;4403387;32;20740;-67
2021/05/27 00:46:07;;;;;;;23.25;8.50;;;;;;;;;;4419064;32;20130;-67
2021/05/27 00:51:16;;;;;;;22.30;8.48;;;;;;;;;;4419929;32;20156;-67
2021/05/27 00:53:41;;;;;;;25.45;9.73;;;;;;;;;;4419098;32;20141;-66
2021/05/27 00:56:07;;;;;;;16.67;8.90;;;;;;;;;;4418652;32;20176;-67
2021/05/27 00:58:32;;;;;;;20.55;8.48;;;;;;;;;;4421290;32;20198;-66
2021/05/27 01:00:57;;;;;;;22.02;7.85;;;;;;;;;;4420160;32;20165;-66
2021/05/27 01:03:23;;;;;;;26.00;7.43;;;;;;;;;;4431740;32;20578;-66
2021/05/27 01:05:48;;;;;;;20.52;7.75;;;;;;;;;;4435205;32;20153;-66
2021/05/27 01:08:13;;;;;;;18.37;7.30;;;;;;;;;;4436890;32;20161;-66
2021/05/27 01:10:38;;;;;;;19.42;7.82;;;;;;;;;;4436139;32;20225;-66
2021/05/27 01:13:04;;;;;;;21.98;7.93;;;;;;;;;;4420746;32;20173;-67
2021/05/27 01:15:31;;;;;;;22.60;7.57;;;;;;;;;;4435767;32;20615;-67
2021/05/27 01:17:57;;;;;;;25.45;8.77;;;;;;;;;;4421448;32;20382;-67
2021/05/27 01:20:22;;;;;;;24.08;8.95;;;;;;;;;;4422773;32;20164;-67
2021/05/27 01:22:48;;;;;;;21.70;9.93;;;;;;;;;;4425981;32;20164;-66
2021/05/27 01:25:14;;;;;;;28.77;10.40;;;;;;;;;;4421635;32;20191;-66
2021/05/27 01:27:39;;;;;;;25.10;9.40;;;;;;;;;;4420398;32;20204;-67
2021/05/27 01:30:06;;;;;;;23.30;10.05;;;;;;;;;;4420020;32;20393;-66
2021/05/27 01:32:32;;;;;;;21.87;9.13;;;;;;;;;;4428996;32;20180;-67
2021/05/27 01:34:57;;;;;;;28.87;10.60;;;;;;;;;;4435302;32;20255;-65
2021/05/27 01:37:22;;;;;;;28.48;9.93;;;;;;;;;;4433686;32;20159;-66
2021/05/27 01:39:47;;;;;;;26.55;8.52;;;;;;;;;;4434355;32;20149;-66
2021/05/27 01:42:13;;;;;;;24.70;8.88;;;;;;;;;;4434613;32;20198;-66
2021/05/27 01:44:39;;;;;;;29.77;9.05;;;;;;;;;;4434338;32;20171;-66
2021/05/27 01:47:04;;;;;;;24.87;9.80;;;;;;;;;;4420331;32;20161;-66
2021/05/27 01:49:29;;;;;;;26.33;10.52;;;;;;;;;;4435175;32;20137;-66
2021/05/27 01:51:54;;;;;;;30.17;10.90;;;;;;;;;;4435521;32;20535;-67
2021/05/27 01:54:19;;;;;;;22.70;9.98;;;;;;;;;;4422240;32;20265;-66
2021/05/27 01:56:45;;;;;;;28.12;10.30;;;;;;;;;;4436148;32;20292;-67
2021/05/27 01:59:10;;;;;;;24.58;10.70;;;;;;;;;;4435890;32;20165;-66
2021/05/27 02:01:35;;;;;;;20.58;8.38;;;;;;;;;;4422684;32;20178;-67
2021/05/27 02:04:01;;;;;;;24.85;7.95;;;;;;;;;;4421500;32;20130;-66
2021/05/27 02:06:26;;;;;;;27.45;8.10;;;;;;;;;;4420430;32;20134;-66
2021/05/27 02:09:10;;;;;;;27.17;8.20;;;;;;;;;;4419092;32;20409;-66
2021/05/27 02:11:36;;;;;;;21.62;8.35;;;;;;;;;;4419284;32;20164;-66
2021/05/27 02:14:02;;;;;;;29.40;9.23;;;;;;;;;;4418423;32;20194;-65
2021/05/27 02:16:27;;;;;;;18.30;8.23;;;;;;;;;;4418060;32;20470;-65
2021/05/27 02:18:53;;;;;;;20.75;8.90;;;;;;;;;;4423203;32;20168;-65
2021/05/27 02:21:18;;;;;;;25.37;8.95;;;;;;;;;;4419127;32;20213;-66
2021/05/27 02:23:43;;;;;;;18.73;8.30;;;;;;;;;;4419225;32;20265;-66
2021/05/27 02:26:08;;;;;;;27.45;9.50;;;;;;;;;;4435389;32;20232;-66
2021/05/27 02:28:33;;;;;;;24.58;8.70;;;;;;;;;;4435301;32;20317;-67
2021/05/27 02:30:58;;;;;;;22.50;8.57;;;;;;;;;;4433149;32;20191;-66
2021/05/27 02:33:23;;;;;;;26.48;9.35;;;;;;;;;;4435146;32;20314;-66
2021/05/27 02:35:49;;;;;;;26.67;9.10;;;;;;;;;;4435333;32;20130;-66
2021/05/27 02:38:14;;;;;;;29.45;10.32;;;;;;;;;;4434304;32;20137;-65
2021/05/27 02:40:39;;;;;;;27.10;10.30;;;;;;;;;;4434721;32;20183;-65
2021/05/27 02:43:04;;;;;;;28.17;9.30;;;;;;;;;;4431029;32;20153;-66
2021/05/27 02:45:29;;;;;;;29.33;9.25;;;;;;;;;;4419476;32;20169;-66
2021/05/27 02:47:54;;;;;;;25.15;8.82;;;;;;;;;;4403841;32;20153;-65
2021/05/27 02:50:20;;;;;;;32.78;10.00;;;;;;;;;;4418444;32;20380;-68
2021/05/27 02:52:45;;;;;;;21.48;9.30;;;;;;;;;;4419718;32;20538;-66
2021/05/27 02:55:10;;;;;;;25.55;8.95;;;;;;;;;;4419076;32;20170;-66
2021/05/27 02:57:35;;;;;;;26.80;9.57;;;;;;;;;;4419963;32;20169;-67
2021/05/27 03:00:01;;;;;;;29.35;10.05;;;;;;;;;;4433880;32;20145;-66
2021/05/27 03:02:26;;;;;;;27.02;9.68;;;;;;;;;;4433509;32;20208;-67
2021/05/27 03:04:51;;;;;;;27.50;10.32;;;;;;;;;;4434148;32;20160;-66
2021/05/27 03:07:16;;;;;;;32.35;10.85;;;;;;;;;;4434344;32;20164;-66
2021/05/27 03:09:41;;;;;;;31.52;11.38;;;;;;;;;;4420347;32;20251;-66
2021/05/27 03:12:07;;;;;;;35.45;11.05;;;;;;;;;;4434091;32;20317;-66
2021/05/27 03:14:32;;;;;;;32.33;10.32;;;;;;;;;;4432944;32;20263;-66
2021/05/27 03:16:57;;;;;;;29.83;10.70;;;;;;;;;;4434345;32;20204;-66
2021/05/27 03:19:22;;;;;;;26.17;9.95;;;;;;;;;;4434359;32;20289;-67
2021/05/27 03:21:47;;;;;;;31.35;10.45;;;;;;;;;;4433366;32;20229;-67
2021/05/27 03:24:12;;;;;;;28.23;10.25;;;;;;;;;;4434928;32;20259;-67
2021/05/27 03:26:38;;;;;;;33.72;11.25;;;;;;;;;;4432319;32;20219;-66
2021/05/27 03:29:03;;;;;;;28.55;9.52;;;;;;;;;;4433313;32;20278;-67
2021/05/27 03:31:28;;;;;;;32.13;10.18;;;;;;;;;;4435512;32;20191;-67
2021/05/27 03:33:53;;;;;;;24.63;9.02;;;;;;;;;;4419340;32;20214;-66
2021/05/27 03:36:18;;;;;;;33.10;9.90;;;;;;;;;;4434297;32;20624;-66
2021/05/27 03:38:44;;;;;;;31.50;10.00;;;;;;;;;;4423997;32;20145;-65
2021/05/27 03:41:09;;;;;;;35.17;10.73;;;;;;;;;;4418977;32;20234;-65
2021/05/27 03:43:34;;;;;;;33.08;11.30;;;;;;;;;;4419622;32;20238;-65
2021/05/27 03:46:00;;;;;;;30.33;10.33;;;;;;;;;;4418790;32;20516;-65
2021/05/27 03:48:25;;;;;;;34.97;11.00;;;;;;;;;;4424792;32;20199;-66
2021/05/27 03:50:51;;;;;;;37.65;11.38;;;;;;;;;;4434617;32;20238;-65
2021/05/27 03:53:16;;;;;;;28.87;10.63;;;;;;;;;;4434041;32;20146;-64
2021/05/27 03:55:41;;;;;;;31.15;9.93;;;;;;;;;;4432821;32;20171;-65
2021/05/27 04:00:42;;;;;;;32.90;10.68;;;;;;;;;;4434559;32;20138;-65
2021/05/27 04:00:51;;;;;;;34.90;10.77;;;;;;;;;;4434205;32;20238;-66
2021/05/27 04:03:17;;;;;;;23.35;9.48;;;;;;;;;;4425372;32;20166;-66
2021/05/27 04:08:26;;;;;;;36.08;10.80;;;;;;;;;;4417758;32;20466;-64
2021/05/27 04:10:51;;;;;;;28.83;9.75;;;;;;;;;;4404234;32;20229;-65
2021/05/27 04:13:17;;;;;;;27.55;10.40;;;;;;;;;;4417883;32;20138;-65
2021/05/27 04:15:42;;;;;;;29.55;10.40;;;;;;;;;;4417731;32;20133;-64
2021/05/27 04:18:17;;;;;;;35.60;9.98;;;;;;;;;;4418727;32;20138;-66
2021/05/27 04:20:45;;;;;;;34.07;9.30;;;;;;;;;;4418335;32;20125;-65
2021/05/27 04:23:11;;;;;;;27.33;9.82;;;;;;;;;;4419964;32;20603;-65
2021/05/27 04:25:38;;;;;;;27.98;8.80;;;;;;;;;;4421802;32;20180;-65
2021/05/27 04:28:03;;;;;;;30.40;10.02;;;;;;;;;;4406462;32;20447;-65
2021/05/27 04:30:29;;;;;;;31.33;9.25;;;;;;;;;;4421806;32;20173;-65
2021/05/27 04:35:32;;;;;;;28.75;9.90;;;;;;;;;;4422124;32;20431;-64
2021/05/27 04:37:59;;;;;;;33.13;10.07;;;;;;;;;;4421017;32;20502;-65
2021/05/27 04:40:24;;;;;;;27.35;9.20;;;;;;;;;;4420670;32;20195;-65
2021/05/27 04:42:49;;;;;;;34.38;10.00;;;;;;;;;;4421599;32;20217;-64
2021/05/27 04:45:14;;;;;;;35.58;9.38;;;;;;;;;;4419465;32;20182;-65
2021/05/27 04:47:40;;;;;;;26.65;9.88;;;;;;;;;;4420774;32;20133;-65
2021/05/27 04:50:06;;;;;;;29.02;9.07;;;;;;;;;;4436851;32;20196;-66
2021/05/27 04:52:31;;;;;;;28.25;8.80;;;;;;;;;;4435541;32;20177;-66
2021/05/27 04:54:57;;;;;;;27.98;9.70;;;;;;;;;;4421650;32;20227;-66
2021/05/27 04:57:22;;;;;;;22.48;8.45;;;;;;;;;;4435614;32;20248;-66
2021/05/27 04:59:47;;;;;;;23.80;9.50;;;;;;;;;;4437838;32;20133;-66
2021/05/27 05:02:12;;;;;;;31.27;9.77;;;;;;;;;;4436501;32;20184;-66
2021/05/27 05:04:37;;;;;;;29.20;8.93;;;;;;;;;;4417812;32;20257;-66
2021/05/27 05:07:02;;;;;;;28.00;9.25;;;;;;;;;;4424020;32;20233;-66
2021/05/27 05:09:28;;;;;;;27.77;9.20;;;;;;;;;;4435332;32;20367;-65
2021/05/27 05:11:53;;;;;;;28.27;9.30;;;;;;;;;;4437468;32;20287;-65
2021/05/27 05:14:18;;;;;;;25.17;8.43;;;;;;;;;;4422892;32;20161;-66
2021/05/27 05:16:43;;;;;;;27.55;8.73;;;;;;;;;;4435358;32;20472;-66
2021/05/27 05:19:08;;;;;;;29.27;8.70;;;;;;;;;;4432658;32;20141;-64
2021/05/27 05:21:33;;;;;;;22.95;8.15;;;;;;;;;;4414396;32;20573;-64
2021/05/27 05:23:59;;;;;;;30.40;8.93;;;;;;;;;;4436496;32;20138;-65
2021/05/27 05:26:24;;;;;;;25.58;9.05;;;;;;;;;;4434872;32;20155;-66
2021/05/27 05:28:49;;;;;;;28.85;9.57;;;;;;;;;;4437115;32;20228;-66
2021/05/27 05:31:14;;;;;;;29.80;9.85;;;;;;;;;;4437008;32;20134;-67
2021/05/27 05:33:39;;;;;;;35.35;10.57;;;;;;;;;;4434219;32;20527;-66
2021/05/27 05:36:05;;;;;;;30.55;10.23;;;;;;;;;;4421281;32;20241;-65
2021/05/27 05:38:30;;;;;;;25.17;10.32;;;;;;;;;;4421418;32;20192;-67
2021/05/27 05:40:55;;;;;;;27.85;9.85;;;;;;;;;;4421649;32;20191;-67
2021/05/27 05:43:20;;;;;;;24.73;8.20;;;;;;;;;;4420116;32;20261;-67
2021/05/27 05:45:45;;;;;;;29.75;8.75;;;;;;;;;;4420688;32;20213;-65
2021/05/27 05:48:11;;;;;;;21.10;7.72;;;;;;;;;;4417682;32;20256;-65
2021/05/27 05:50:46;;;;;;;26.67;7.90;;;;;;;;;;4436086;32;20165;-66
2021/05/27 05:53:12;;;;;;;26.48;8.02;;;;;;;;;;4436128;32;20248;-65
2021/05/27 05:55:38;;;;;;;22.48;8.68;;;;;;;;;;4423928;32;20635;-65
2021/05/27 05:58:03;;;;;;;23.15;7.40;;;;;;;;;;4419627;32;20277;-65
2021/05/27 06:00:29;;;;;;;25.73;7.37;;;;;;;;;;4419191;32;20195;-66
2021/05/27 06:02:54;;;;;;;19.80;7.07;;;;;;;;;;4405975;32;20633;-66
2021/05/27 06:05:19;;;;;;;26.85;7.65;;;;;;;;;;4419438;32;20138;-66
2021/05/27 06:07:45;;;;;;;25.98;8.18;;;;;;;;;;4431912;32;20207;-66
2021/05/27 06:10:10;;;;;;;26.02;8.45;;;;;;;;;;4435182;32;20182;-64
2021/05/27 06:12:36;;;;;;;26.12;8.02;;;;;;;;;;4433807;32;20206;-66
2021/05/27 06:15:01;;;;;;;29.12;7.87;;;;;;;;;;4427198;32;20552;-66
2021/05/27 06:17:26;;;;;;;24.40;7.43;;;;;;;;;;4424575;32;20142;-66
2021/05/27 06:19:51;;;;;;;28.62;7.55;;;;;;;;;;4421943;32;20505;-65
2021/05/27 06:22:16;;;;;;;23.48;7.60;;;;;;;;;;4418415;32;20161;-65
2021/05/27 06:24:42;;;;;;;22.92;7.43;;;;;;;;;;4428875;32;20544;-65
2021/05/27 06:27:07;;;;;;;21.30;6.90;;;;;;;;;;4419904;32;20149;-65
2021/05/27 06:29:32;;;;;;;21.20;6.57;;;;;;;;;;4430246;32;20164;-64
2021/05/27 06:31:57;;;;;;;25.67;7.35;;;;;;;;;;4432800;32;20142;-66
2021/05/27 06:34:22;;;;;;;24.27;7.40;;;;;;;;;;4424859;32;20239;-68
2021/05/27 06:36:48;;;;;;;23.50;7.25;;;;;;;;;;4439798;32;20571;-65
2021/05/27 06:39:13;;;;;;;24.87;7.35;;;;;;;;;;4433768;32;20691;-66
2021/05/27 06:41:38;;;;;;;23.42;7.03;;;;;;;;;;4433059;32;20142;-65
2021/05/27 06:44:03;;;;;;;28.30;6.72;;;;;;;;;;4433880;32;20416;-67
2021/05/27 06:46:28;;;;;;;21.75;6.62;;;;;;;;;;4421356;32;20261;-66
2021/05/27 06:48:54;;;;;;;21.83;6.95;;;;;;;;;;4426395;32;20643;-65
2021/05/27 06:51:19;;;;;;;24.08;6.68;;;;;;;;;;4420026;32;20153;-66
2021/05/27 06:53:44;;;;;;;31.25;7.72;;;;;;;;;;4422085;32;20176;-65
2021/05/27 06:56:09;;;;;;;28.75;8.48;;;;;;;;;;4428650;32;20199;-66
2021/05/27 06:58:35;;;;;;;20.58;7.15;;;;;;;;;;4422311;32;20142;-66
2021/05/27 07:01:00;;;;;;;16.92;6.12;;;;;;;;;;4419104;32;20876;-65
2021/05/27 07:03:25;;;;;;;27.05;7.62;;;;;;;;;;4417404;32;20184;-67
2021/05/27 07:05:50;;;;;;;23.83;6.50;;;;;;;;;;4421687;32;20713;-66
2021/05/27 07:08:16;;;;;;;24.63;6.67;;;;;;;;;;4424161;32;20172;-66
2021/05/27 07:10:41;;;;;;;20.83;7.62;;;;;;;;;;4404064;32;20304;-67
2021/05/27 07:13:07;;;;;;;23.67;6.87;;;;;;;;;;4433499;32;20572;-67
2021/05/27 07:15:32;;;;;;;22.45;7.37;;;;;;;;;;4431653;32;20157;-67
2021/05/27 07:17:58;;;;;;;19.70;7.57;;;;;;;;;;4435205;32;20252;-65
2021/05/27 07:20:24;;;;;;;22.90;7.10;;;;;;;;;;4422443;32;20570;-67
2021/05/27 07:22:50;;;;;;;24.83;7.05;;;;;;;;;;4418242;32;20564;-66
2021/05/27 07:25:16;;;;;;;21.02;6.45;;;;;;;;;;4431923;32;20188;-66
2021/05/27 07:27:43;;;;;;;18.50;6.03;;;;;;;;;;4434461;32;20177;-64
2021/05/27 07:30:08;;;;;;;20.07;6.03;;;;;;;;;;4434735;32;20540;-65
2021/05/27 07:32:34;;;;;;;16.30;5.87;;;;;;;;;;4428279;32;20169;-65
2021/05/27 07:34:59;;;;;;;20.40;6.22;;;;;;;;;;4405934;32;20197;-66
2021/05/27 07:37:24;;;;;;;22.48;6.35;;;;;;;;;;4423603;32;20145;-65
2021/05/27 07:39:49;;;;;;;19.02;6.18;;;;;;;;;;4425658;32;20623;-66
2021/05/27 07:42:15;;;;;;;21.05;6.53;;;;;;;;;;4428404;32;20157;-67
2021/05/27 07:44:40;;;;;;;22.17;6.60;;;;;;;;;;4424473;32;20587;-65
2021/05/27 07:47:05;;;;;;;18.37;5.90;;;;;;;;;;4434065;32;20161;-65
2021/05/27 07:49:30;;;;;;;21.48;6.60;;;;;;;;;;4425672;32;20215;-66
2021/05/27 07:51:56;;;;;;;19.27;5.40;;;;;;;;;;4417919;32;20168;-68
2021/05/27 07:54:21;;;;;;;20.30;6.22;;;;;;;;;;4424090;32;20252;-67
2021/05/27 07:56:46;;;;;;;20.77;5.87;;;;;;;;;;4433237;32;20196;-65
2021/05/27 07:59:13;;;;;;;22.52;6.87;;;;;;;;;;4433086;32;20180;-66
2021/05/27 08:01:39;;;;;;;17.98;5.82;;;;;;;;;;4430124;32;20255;-65
2021/05/27 08:04:04;;;;;;;19.90;5.95;;;;;;;;;;4418064;32;20538;-66
2021/05/27 08:06:29;;;;;;;25.20;6.95;;;;;;;;;;4430990;32;20651;-66
2021/05/27 08:08:55;;;;;;;19.65;6.35;;;;;;;;;;4432410;32;20263;-66
2021/05/27 08:11:20;;;;;;;20.50;6.50;;;;;;;;;;4432157;32;20256;-67
2021/05/27 08:13:46;;;;;;;20.50;6.10;;;;;;;;;;4419832;32;20478;-66
2021/05/27 08:16:11;;;;;;;17.80;5.87;;;;;;;;;;4418784;32;20185;-67
2021/05/27 08:18:37;;;;;;;21.67;6.62;;;;;;;;;;4432942;32;20492;-66
2021/05/27 08:21:02;;;;;;;15.65;6.00;;;;;;;;;;4433662;32;20160;-66
2021/05/27 08:23:27;;;;;;;28.17;6.85;;;;;;;;;;4431865;32;20277;-66
2021/05/27 08:25:52;;;;;;;22.23;6.10;;;;;;;;;;4433952;32;20133;-66
2021/05/27 08:28:17;;;;;;;22.00;6.53;;;;;;;;;;4428337;32;20253;-66
2021/05/27 08:30:43;;;;;;;20.37;6.53;;;;;;;;;;4417830;32;20134;-66
2021/05/27 08:33:08;;;;;;;25.33;6.45;;;;;;;;;;4416927;32;20236;-66
2021/05/27 08:35:33;;;;;;;21.55;6.68;;;;;;;;;;4423475;32;20263;-66
2021/05/27 08:37:58;;;;;;;14.75;5.47;;;;;;;;;;4433955;32;20134;-66
2021/05/27 08:40:23;;;;;;;19.08;6.40;;;;;;;;;;4429114;32;20149;-67
2021/05/27 08:42:49;;;;;;;17.30;6.68;;;;;;;;;;4434241;32;20173;-66
2021/05/27 08:45:16;;;;;;;19.55;5.97;;;;;;;;;;4429289;32;20244;-66
2021/05/27 08:47:41;;;;;;;16.37;6.20;;;;;;;;;;4418600;32;20169;-66
2021/05/27 08:50:08;;;;;;;17.65;5.72;;;;;;;;;;4418610;32;20625;-66
2021/05/27 08:52:33;;;;;;;15.27;5.43;;;;;;;;;;4404932;32;20158;-66
2021/05/27 08:54:58;;;;;;;24.45;5.87;;;;;;;;;;4416947;32;20164;-66
2021/05/27 08:57:24;;;;;;;15.77;5.60;;;;;;;;;;4426562;32;20157;-67
2021/05/27 08:59:49;;;;;;;22.73;6.12;;;;;;;;;;4425447;32;20567;-67
2021/05/27 09:02:14;;;;;;;17.10;5.28;;;;;;;;;;4421008;32;20618;-67
2021/05/27 09:04:40;;;;;;;20.37;5.97;;;;;;;;;;4418034;32;20726;-67
2021/05/27 09:07:05;;;;;;;14.80;4.55;;;;;;;;;;4411371;32;20168;-67
2021/05/27 09:09:46;;;;;;;15.18;5.12;;;;;;;;;;4417665;32;20509;-66
2021/05/27 09:12:23;;;;;;;20.17;5.85;;;;;;;;;;4435116;32;20173;-66
2021/05/27 09:14:49;;;;;;;17.65;5.32;;;;;;;;;;4421482;32;20166;-66
2021/05/27 09:17:14;;;;;;;19.55;5.47;;;;;;;;;;4419890;32;20197;-67
2021/05/27 09:19:39;;;;;;;18.95;5.47;;;;;;;;;;4422718;32;20203;-67
2021/05/27 09:22:19;;;;;;;17.97;6.10;;;;;;;;;;4422568;32;20259;-67
2021/05/27 09:24:45;;;;;;;18.98;5.97;;;;;;;;;;4430564;32;20282;-67
2021/05/27 09:27:10;;;;;;;16.92;5.80;;;;;;;;;;4437031;32;20148;-68
2021/05/27 09:29:42;;;;;;;26.67;6.43;;;;;;;;;;4437155;32;20185;-67
2021/05/27 09:32:07;;;;;;;23.58;6.25;;;;;;;;;;4439932;32;20156;-67
2021/05/27 09:34:46;;;;;;;23.65;7.12;;;;;;;;;;4451519;32;20528;-66
2021/05/27 09:37:21;;;;;;;16.40;5.75;;;;;;;;;;4449004;32;20175;-66
2021/05/27 09:39:48;;;;;;;16.92;5.78;;;;;;;;;;4450403;32;20168;-65
2021/05/27 09:42:13;;;;;;;19.55;6.40;;;;;;;;;;4450172;32;20195;-66
2021/05/27 09:44:39;;;;;;;18.62;5.40;;;;;;;;;;4447989;32;20139;-66
2021/05/27 09:47:04;;;;;;;17.60;5.93;;;;;;;;;;4430996;32;20582;-65
2021/05/27 09:49:31;;;;;;;18.67;7.00;;;;;;;;;;4433719;32;20622;-66
2021/05/27 09:51:57;;;;;;;17.40;5.68;;;;;;;;;;4435294;32;20210;-66
2021/05/27 09:54:23;;;;;;;17.95;6.35;;;;;;;;;;4434316;32;20142;-67
2021/05/27 09:56:49;;;;;;;18.85;6.70;;;;;;;;;;4435743;32;20130;-65
2021/05/27 09:59:15;;;;;;;17.00;6.20;;;;;;;;;;4432180;32;20546;-65
2021/05/27 10:01:48;;;;;;;21.25;6.45;;;;;;;;;;4434740;32;20161;-65
2021/05/27 10:04:14;;;;;;;19.52;6.68;;;;;;;;;;4435937;32;20122;-65
2021/05/27 10:06:40;;;;;;;25.52;7.43;;;;;;;;;;4434980;32;20138;-66
2021/05/27 10:09:08;;;;;;;22.13;6.07;;;;;;;;;;4434284;32;20142;-66
2021/05/27 10:11:33;;;;;;;24.50;6.43;;;;;;;;;;4420152;32;20203;-66
2021/05/27 10:13:59;;;;;;;26.90;6.18;;;;;;;;;;4435971;32;20539;-67
2021/05/27 10:16:25;;;;;;;21.48;5.50;;;;;;;;;;4422060;32;20263;-67
2021/05/27 10:18:51;;;;;;;22.27;6.22;;;;;;;;;;4435281;32;20581;-67
2021/05/27 10:21:17;;;;;;;18.25;5.80;;;;;;;;;;4434948;32;20133;-67
2021/05/27 10:23:42;;;;;;;16.58;5.35;;;;;;;;;;4436368;32;20205;-67
2021/05/27 10:26:07;;;;;;;16.75;5.45;;;;;;;;;;4436951;32;20491;-66
2021/05/27 10:28:33;;;;;;;12.85;4.95;;;;;;;;;;4421819;32;20301;-66
2021/05/27 10:30:58;;;;;;;20.23;5.32;;;;;;;;;;4436788;32;20157;-66
2021/05/27 10:33:25;;;;;;;19.10;5.10;;;;;;;;;;4436651;32;20154;-66
2021/05/27 10:35:51;;;;;;;17.35;5.45;;;;;;;;;;4434275;32;20134;-66
2021/05/27 10:38:36;;;;;;;17.40;5.20;;;;;;;;;;4433412;32;20182;-67
2021/05/27 10:41:01;;;;;;;16.40;5.40;;;;;;;;;;4432765;32;20253;-67
2021/05/27 10:43:26;;;;;;;13.95;5.20;;;;;;;;;;4431893;32;20534;-66
2021/05/27 10:46:01;;;;;;;14.05;4.90;;;;;;;;;;4421355;32;20237;-66
2021/05/27 10:48:27;;;;;;;19.20;5.07;;;;;;;;;;4416136;32;20141;-66
2021/05/27 10:51:11;;;;;;;14.05;4.97;;;;;;;;;;4424032;32;20188;-67
2021/05/27 10:53:40;;;;;;;16.10;5.45;;;;;;;;;;4434683;32;20285;-67
2021/05/27 10:56:16;;;;;;;17.80;5.03;;;;;;;;;;4425618;32;20153;-68
2021/05/27 10:58:53;;;;;;;16.73;6.18;;;;;;;;;;4433097;32;20191;-68
2021/05/27 11:01:27;;;;;;;17.52;5.78;;;;;;;;;;4428650;32;20141;-67
2021/05/27 11:03:54;;;;;;;13.02;5.32;;;;;;;;;;4433766;32;20281;-66
2021/05/27 11:06:22;;;;;;;15.13;4.70;;;;;;;;;;4418270;32;20164;-67
2021/05/27 11:08:49;;;;;;;16.00;5.20;;;;;;;;;;4433131;32;20179;-67
2021/05/27 11:11:33;;;;;;;14.87;5.22;;;;;;;;;;4427544;32;20213;-67
2021/05/27 11:14:13;;;;;;;17.37;5.28;;;;;;;;;;4404531;32;20656;-66
2021/05/27 11:19:45;;;;;;;14.20;5.30;;;;;;;;;;4417872;32;20180;-67
2021/05/27 11:25:13;;;;;;;15.55;4.75;;;;;;;;;;4418996;32;20450;-67
2021/05/27 11:27:41;;;;;;;13.00;4.22;;;;;;;;;;4402685;32;20183;-67
2021/05/27 11:30:25;;;;;;;12.00;4.37;;;;;;;;;;4420566;32;20142;-67
2021/05/27 11:33:05;;;;;;;15.40;4.30;;;;;;;;;;4433704;32;20236;-67
2021/05/27 11:35:44;;;;;;;10.68;4.68;;;;;;;;;;4433967;32;20195;-67
2021/05/27 11:38:13;;;;;;;11.85;3.95;;;;;;;;;;4433869;32;20190;-68
2021/05/27 11:40:46;;;;;;;14.15;4.10;;;;;;;;;;4433203;32;20196;-67
2021/05/27 11:43:12;;;;;;;16.08;4.53;;;;;;;;;;4440760;32;20180;-67
2021/05/27 11:45:41;;;;;;;18.98;4.75;;;;;;;;;;4423407;32;20203;-67
2021/05/27 11:48:17;;;;;;;19.73;5.00;;;;;;;;;;4434724;32;20145;-67
2021/05/27 11:50:43;;;;;;;12.13;3.17;;;;;;;;;;4430510;32;20199;-67
2021/05/27 11:53:09;;;;;;;12.55;3.92;;;;;;;;;;4446689;32;20133;-67
2021/05/27 11:55:37;;;;;;;12.25;2.97;;;;;;;;;;4423862;32;20189;-67
2021/05/27 11:58:03;;;;;;;9.70;2.67;;;;;;;;;;4432220;32;20189;-68
2021/05/27 12:00:28;;;;;;;9.40;3.05;;;;;;;;;;4415266;32;20234;-67
2021/05/27 12:02:54;;;;;;;8.98;2.92;;;;;;;;;;4428776;32;20146;-67
2021/05/27 12:05:27;;;;;;;12.60;3.92;;;;;;;;;;4420437;32;20177;-66
2021/05/27 12:07:59;;;;;;;13.57;4.07;;;;;;;;;;4427044;32;20149;-67
2021/05/27 12:10:25;;;;;;;8.95;2.45;;;;;;;;;;4419102;32;20299;-67
2021/05/27 12:12:51;;;;;;;12.45;2.80;;;;;;;;;;4442075;32;20149;-67
2021/05/27 12:15:17;;;;;;;10.13;2.70;;;;;;;;;;4438403;32;20271;-67
2021/05/27 12:17:45;;;;;;;8.85;2.70;;;;;;;;;;4419877;32;20528;-67
2021/05/27 12:20:19;;;;;;;9.30;3.00;;;;;;;;;;4431234;32;20209;-68
2021/05/27 12:22:55;;;;;;;8.38;2.60;;;;;;;;;;4434187;32;20125;-68
2021/05/27 12:25:28;;;;;;;9.75;3.08;;;;;;;;;;4418810;32;20137;-67
2021/05/27 12:27:55;;;;;;;13.77;3.67;;;;;;;;;;4403288;32;20249;-66
2021/05/27 12:30:28;;;;;;;18.05;3.55;;;;;;;;;;4417912;32;20538;-67
2021/05/27 12:32:55;;;;;;;10.63;3.15;;;;;;;;;;4415485;32;20130;-67
2021/05/27 12:35:24;;;;;;;12.27;3.05;;;;;;;;;;4418281;32;20222;-68
2021/05/27 12:37:54;;;;;;;7.40;2.87;;;;;;;;;;4426508;32;20627;-66
2021/05/27 12:40:23;;;;;;;11.40;3.12;;;;;;;;;;4431947;32;20535;-68
2021/05/27 12:42:49;;;;;;;10.68;3.10;;;;;;;;;;4433865;32;20180;-67
2021/05/27 12:45:28;;;;;;;7.25;2.50;;;;;;;;;;4435461;32;20459;-67
2021/05/27 12:48:09;;;;;;;9.93;2.75;;;;;;;;;;4435687;32;20125;-66
2021/05/27 12:50:36;;;;;;;10.65;2.80;;;;;;;;;;4435604;32;20146;-66
2021/05/27 12:53:03;;;;;;;11.60;3.20;;;;;;;;;;4430379;32;20157;-66
2021/05/27 12:55:29;;;;;;;8.88;2.92;;;;;;;;;;4418924;32;20138;-66
2021/05/27 12:57:55;;;;;;;13.93;3.37;;;;;;;;;;4422096;32;20149;-66
2021/05/27 13:00:21;;;;;;;9.50;3.03;;;;;;;;;;4428174;32;20264;-66
2021/05/27 13:03:00;;;;;;;13.43;3.10;;;;;;;;;;4436601;32;20145;-66
2021/05/27 13:05:25;;;;;;;9.75;3.03;;;;;;;;;;4448270;32;20225;-66
2021/05/27 13:07:54;;;;;;;12.07;3.10;;;;;;;;;;4440469;32;20647;-66
2021/05/27 13:10:30;;;;;;;10.27;3.17;;;;;;;;;;4431732;32;20228;-66
2021/05/27 13:12:55;;;;;;;14.13;3.35;;;;;;;;;;4421432;32;20380;-66
2021/05/27 13:15:20;;;;;;;15.77;3.17;;;;;;;;;;4428382;32;20430;-66
2021/05/27 13:18:05;;;;;;;10.88;3.60;;;;;;;;;;4418946;32;20152;-66
2021/05/27 13:20:30;;;;;;;13.38;2.90;;;;;;;;;;4419381;32;20577;-66
2021/05/27 13:22:56;;;;;;;7.00;2.45;;;;;;;;;;4419594;32;20142;-66
2021/05/27 13:25:27;;;;;;;8.18;2.55;;;;;;;;;;4404556;32;20232;-68
2021/05/27 13:27:55;;;;;;;7.82;2.42;;;;;;;;;;4420722;32;20537;-65
2021/05/27 13:30:56;;;;;;;10.25;3.17;;;;;;;;;;4419686;32;20130;-67
2021/05/27 13:33:13;;;;;;;7.97;2.40;;;;;;;;;;4416448;32;20354;-66
2021/05/27 13:35:39;;;;;;;7.18;2.83;;;;;;;;;;4419151;32;20462;-67
2021/05/27 13:38:05;;;;;;;11.52;2.78;;;;;;;;;;4405705;32;20561;-66
2021/05/27 13:40:31;;;;;;;8.38;2.42;;;;;;;;;;4420401;32;20168;-66
2021/05/27 13:42:58;;;;;;;10.02;2.37;;;;;;;;;;4418374;32;20209;-66
2021/05/27 13:45:24;;;;;;;10.77;2.60;;;;;;;;;;4419832;32;20561;-66
2021/05/27 13:47:50;;;;;;;10.15;2.80;;;;;;;;;;4419812;32;20196;-66
2021/05/27 13:50:16;;;;;;;7.32;2.20;;;;;;;;;;4427218;32;20211;-66
2021/05/27 13:52:44;;;;;;;7.80;2.03;;;;;;;;;;4429819;32;20203;-67
2021/05/27 13:55:14;;;;;;;9.80;2.20;;;;;;;;;;4427988;32;20161;-66
2021/05/27 13:57:41;;;;;;;6.07;2.03;;;;;;;;;;4415977;32;20165;-68
2021/05/27 14:00:07;;;;;;;7.68;2.20;;;;;;;;;;4421665;32;20154;-67
2021/05/27 14:02:32;;;;;;;6.78;2.15;;;;;;;;;;4418944;32;20235;-68
2021/05/27 14:04:57;;;;;;;10.63;2.50;;;;;;;;;;4420282;32;20197;-67
2021/05/27 14:07:22;;;;;;;8.85;1.50;;;;;;;;;;4421477;32;20145;-67
2021/05/27 14:09:47;;;;;;;9.50;1.98;;;;;;;;;;4420416;32;20126;-67
2021/05/27 14:12:13;;;;;;;8.23;2.28;;;;;;;;;;4424352;32;20257;-66
2021/05/27 14:14:38;;;;;;;7.95;2.35;;;;;;;;;;4419337;32;20760;-67
2021/05/27 14:17:03;;;;;;;6.07;1.90;;;;;;;;;;4420461;32;20134;-66
2021/05/27 14:19:29;;;;;;;7.47;1.95;;;;;;;;;;4416994;32;20165;-67
2021/05/27 14:21:54;;;;;;;6.12;1.90;;;;;;;;;;4443117;32;20164;-67
2021/05/27 14:24:19;;;;;;;10.07;2.20;;;;;;;;;;4448993;32;20183;-67
2021/05/27 14:26:45;;;;;;;10.07;2.40;;;;;;;;;;4434353;32;20164;-67
2021/05/27 14:29:10;;;;;;;6.40;1.80;;;;;;;;;;4448646;32;20259;-67
2021/05/27 14:31:36;;;;;;;6.25;1.90;;;;;;;;;;4448595;32;20228;-67
2021/05/27 14:34:01;;;;;;;8.77;1.95;;;;;;;;;;4449944;32;20192;-68
2021/05/27 14:36:27;;;;;;;10.43;2.17;;;;;;;;;;4440752;32;20190;-67
2021/05/27 14:38:52;;;;;;;5.47;1.62;;;;;;;;;;4422871;32;20609;-68
2021/05/27 14:41:17;;;;;;;7.00;1.98;;;;;;;;;;4425930;32;20137;-67